Time;durP1;ratioP1;P1;durP2;ratioP2;P2;SDS_P1;SDS_P2;PMS_P1;PMS_P2;Temp;Humidity;BMP_temperature;BMP_pressure;BME280_temperature;BME280_humidity;BME280_pressure;Samples;Min_cycle;Max_cycle;Signal;HPM_P1;HPM_P2
2022/10/13 00:00:54;;;;;;;30.23;16.27;;;;;;;10.62;100.00;101768.31;5072306;28;20083;-66
2022/10/13 00:03:19;;;;;;;29.65;15.85;;;;;;;10.61;100.00;101769.19;5072224;28;20054;-66
2022/10/13 00:05:48;;;;;;;30.20;15.55;;;;;;;10.59;100.00;101769.16;5072470;28;20025;-66
2022/10/13 00:08:18;;;;;;;29.95;16.05;;;;;;;10.59;100.00;101762.97;5072310;28;20472;-66
2022/10/13 00:10:44;;;;;;;30.23;15.52;;;;;;;10.60;100.00;101768.31;5076073;28;20024;-66
2022/10/13 00:13:09;;;;;;;28.85;15.63;;;;;;;10.58;100.00;101753.25;5076292;28;20074;-66
2022/10/13 00:15:42;;;;;;;29.80;15.43;;;;;;;10.56;100.00;101757.66;5076054;28;20071;-66
2022/10/13 00:18:08;;;;;;;28.40;15.85;;;;;;;10.59;100.00;101745.34;5075850;28;20487;-66
2022/10/13 00:20:34;;;;;;;29.10;15.82;;;;;;;10.57;100.00;101747.09;5076484;28;20025;-67
2022/10/13 00:22:59;;;;;;;29.13;16.23;;;;;;;10.52;100.00;101747.88;5075887;28;20028;-66
2022/10/13 00:25:25;;;;;;;29.52;16.30;;;;;;;10.47;100.00;101742.50;5076036;28;20025;-66
2022/10/13 00:27:50;;;;;;;29.83;16.23;;;;;;;10.45;100.00;101739.78;5076111;28;20024;-67
2022/10/13 00:30:16;;;;;;;30.63;16.80;;;;;;;10.45;100.00;101738.91;5076121;28;20024;-67
2022/10/13 00:32:41;;;;;;;30.48;16.23;;;;;;;10.46;100.00;101746.88;5075651;28;20027;-66
2022/10/13 00:35:07;;;;;;;29.30;15.98;;;;;;;10.45;100.00;101750.38;5076065;28;20071;-67
2022/10/13 00:37:32;;;;;;;31.23;16.27;;;;;;;10.49;100.00;101742.53;5075721;28;20052;-66
2022/10/13 00:39:57;;;;;;;30.83;16.27;;;;;;;10.51;100.00;101735.50;5075749;28;20497;-66
2022/10/13 00:42:25;;;;;;;29.25;16.50;;;;;;;10.50;100.00;101737.28;5075688;28;20559;-66
2022/10/13 00:44:59;;;;;;;29.00;16.13;;;;;;;10.49;100.00;101743.41;5075495;28;20090;-67
2022/10/13 00:47:33;;;;;;;29.10;15.18;;;;;;;10.49;100.00;101739.88;5072085;28;20028;-66
2022/10/13 00:50:00;;;;;;;28.40;16.00;;;;;;;10.50;100.00;101746.94;5075641;28;20103;-63
2022/10/13 00:52:26;;;;;;;31.42;15.60;;;;;;;10.54;100.00;101735.56;5073858;28;20037;-66
2022/10/13 00:54:54;;;;;;;28.70;15.80;;;;;;;10.55;100.00;101740.00;5075475;28;20364;-66
2022/10/13 00:57:19;;;;;;;29.98;15.77;;;;;;;10.58;100.00;101740.03;5071221;28;20033;-64
2022/10/13 00:59:46;;;;;;;30.95;16.02;;;;;;;10.59;100.00;101731.25;5075373;28;20035;-66
2022/10/13 01:02:11;;;;;;;29.05;15.80;;;;;;;10.57;100.00;101727.69;5075107;28;20024;-66
2022/10/13 01:04:41;;;;;;;30.50;16.50;;;;;;;10.54;100.00;101732.91;5075371;28;20078;-65
2022/10/13 01:07:07;;;;;;;29.45;15.75;;;;;;;10.49;100.00;101739.88;5075398;28;20035;-66
2022/10/13 01:09:40;;;;;;;32.97;15.85;;;;;;;10.53;100.00;101737.31;5075013;28;20538;-66
2022/10/13 01:12:24;;;;;;;29.48;15.65;;;;;;;10.50;100.00;101736.34;5075010;28;20459;-66
2022/10/13 01:15:11;;;;;;;29.92;15.82;;;;;;;10.52;100.00;101737.28;5071228;28;20175;-66
2022/10/13 01:17:55;;;;;;;29.88;15.52;;;;;;;10.51;100.00;101736.38;5073604;28;20118;-66
2022/10/13 01:21:01;;;;;;;32.50;16.30;;;;;;;10.53;100.00;101736.41;5070177;28;20028;-66
2022/10/13 01:23:45;;;;;;;30.48;15.60;;;;;;;10.52;100.00;101734.66;5072092;28;20442;-67
2022/10/13 01:26:53;;;;;;;30.63;15.85;;;;;;;10.48;100.00;101740.72;5074700;28;20029;-66
2022/10/13 01:29:47;;;;;;;31.35;15.70;;;;;;;10.48;100.00;101736.31;5070808;28;20487;-66
2022/10/13 01:32:15;;;;;;;30.20;15.20;;;;;;;10.49;100.00;101738.13;5074231;28;20024;-66
2022/10/13 01:35:08;;;;;;;30.05;15.30;;;;;;;10.50;100.00;101739.00;5074783;28;20036;-66
2022/10/13 01:37:48;;;;;;;30.17;14.88;;;;;;;10.51;100.00;101739.03;5072931;28;20028;-67
2022/10/13 01:40:43;;;;;;;30.92;14.93;;;;;;;10.48;100.00;101738.09;5074710;28;20043;-67
2022/10/13 01:43:22;;;;;;;30.40;15.35;;;;;;;10.48;100.00;101727.50;5073322;28;20017;-67
2022/10/13 01:45:54;;;;;;;31.02;16.08;;;;;;;10.48;100.00;101722.22;5074785;28;20031;-67
2022/10/13 01:48:20;;;;;;;30.27;15.40;;;;;;;10.46;100.00;101719.56;5070509;28;20138;-66
2022/10/13 01:50:50;;;;;;;30.70;15.73;;;;;;;10.45;100.00;101729.22;5074239;28;20032;-66
2022/10/13 01:53:17;;;;;;;32.20;15.25;;;;;;;10.51;100.00;101720.53;5074233;28;20107;-66
2022/10/13 01:55:58;;;;;;;29.67;14.45;;;;;;;10.54;100.00;101717.06;5074289;28;20028;-66
2022/10/13 01:58:26;;;;;;;29.05;14.70;;;;;;;10.54;100.00;101712.66;5071166;28;20041;-66
2022/10/13 02:01:30;;;;;;;29.55;15.07;;;;;;;10.54;100.00;101704.75;5070282;28;20024;-66
2022/10/13 02:04:14;;;;;;;31.10;15.00;;;;;;;10.56;100.00;101710.06;5032304;28;20033;-66
2022/10/13 02:06:54;;;;;;;29.98;15.18;;;;;;;10.58;100.00;101708.31;5032228;28;20469;-66
2022/10/13 02:09:41;;;;;;;29.30;14.57;;;;;;;10.61;100.00;101703.09;5031749;28;20416;-66
2022/10/13 02:12:24;;;;;;;28.95;14.90;;;;;;;10.66;100.00;101696.13;5031939;28;20080;-66
2022/10/13 02:14:51;;;;;;;31.80;15.38;;;;;;;10.67;100.00;101692.59;5011236;28;20037;-66
2022/10/13 02:17:17;;;;;;;28.60;14.85;;;;;;;10.71;100.00;101698.84;5031788;28;20034;-66
2022/10/13 02:19:43;;;;;;;30.98;15.75;;;;;;;10.70;100.00;101697.94;5031892;28;20033;-66
2022/10/13 02:22:13;;;;;;;28.92;15.57;;;;;;;10.68;100.00;101691.75;5031648;28;20034;-66
2022/10/13 02:24:39;;;;;;;29.60;15.25;;;;;;;10.67;100.00;101683.78;5031626;28;20083;-66
2022/10/13 02:27:05;;;;;;;32.38;16.10;;;;;;;10.66;100.00;101680.28;5031819;28;20116;-66
2022/10/13 02:29:31;;;;;;;30.02;15.45;;;;;;;10.65;100.00;101675.84;5031463;28;20104;-66
2022/10/13 02:31:56;;;;;;;29.00;14.40;;;;;;;10.66;100.00;101685.56;5031290;28;20112;-66
2022/10/13 02:34:21;;;;;;;29.73;14.50;;;;;;;10.66;100.00;101674.97;5031546;28;20033;-66
2022/10/13 02:36:47;;;;;;;29.45;14.65;;;;;;;10.67;100.00;101682.03;5031304;28;20026;-66
2022/10/13 02:39:12;;;;;;;30.33;14.85;;;;;;;10.70;100.00;101679.44;5031246;28;20029;-66
2022/10/13 02:41:38;;;;;;;27.38;14.70;;;;;;;10.71;100.00;101670.66;5065245;28;20467;-66
2022/10/13 02:44:04;;;;;;;29.50;14.95;;;;;;;10.72;100.00;101675.06;5073359;28;20035;-66
2022/10/13 02:46:30;;;;;;;30.40;14.40;;;;;;;10.72;100.00;101675.06;5073132;28;20025;-66
2022/10/13 02:48:55;;;;;;;29.98;14.43;;;;;;;10.75;100.00;101666.31;5073411;28;20073;-64
2022/10/13 02:51:21;;;;;;;28.55;14.10;;;;;;;10.76;100.00;101666.34;5072939;28;20406;-65
2022/10/13 02:53:46;;;;;;;27.23;13.90;;;;;;;10.78;100.00;101672.53;5072117;28;20025;-65
2022/10/13 02:56:12;;;;;;;26.50;14.25;;;;;;;10.76;100.00;101662.78;5073474;28;20032;-64
2022/10/13 02:58:37;;;;;;;28.70;14.75;;;;;;;10.77;100.00;101662.81;5073180;28;20020;-64
2022/10/13 03:01:11;;;;;;;28.73;15.05;;;;;;;10.77;100.00;101662.81;5073218;28;20115;-65
2022/10/13 03:03:37;;;;;;;31.83;14.77;;;;;;;10.77;100.00;101662.81;5073075;28;20032;-63
2022/10/13 03:06:03;;;;;;;28.42;14.40;;;;;;;10.77;100.00;101660.16;5073048;28;20112;-63
2022/10/13 03:08:30;;;;;;;27.60;14.30;;;;;;;10.76;100.00;101661.03;5072853;28;20086;-65
2022/10/13 03:10:55;;;;;;;28.67;14.00;;;;;;;10.78;100.00;101655.78;5072924;28;20028;-63
2022/10/13 03:13:21;;;;;;;27.90;14.00;;;;;;;10.75;100.00;101656.63;5072936;28;20398;-66
2022/10/13 03:15:46;;;;;;;30.08;14.43;;;;;;;10.74;100.00;101656.59;5072486;28;20045;-64
2022/10/13 03:18:12;;;;;;;27.73;14.10;;;;;;;10.72;100.00;101650.41;5072793;28;20027;-63
2022/10/13 03:20:37;;;;;;;29.45;14.15;;;;;;;10.72;100.00;101643.34;5070915;28;20039;-65
2022/10/13 03:23:02;;;;;;;27.98;13.77;;;;;;;10.72;100.00;101650.41;5072983;28;20039;-66
2022/10/13 03:25:28;;;;;;;27.40;13.68;;;;;;;10.69;100.00;101643.28;5072858;28;20016;-66
2022/10/13 03:27:54;;;;;;;27.25;13.65;;;;;;;10.70;100.00;101650.34;5073062;28;20475;-66
2022/10/13 03:30:20;;;;;;;27.55;13.80;;;;;;;10.72;100.00;101640.69;5069087;28;20017;-66
2022/10/13 03:32:45;;;;;;;27.15;13.88;;;;;;;10.74;100.00;101651.31;5072507;28;20372;-66
2022/10/13 03:35:11;;;;;;;26.98;13.75;;;;;;;10.77;100.00;101652.22;5072792;28;20029;-65
2022/10/13 03:37:36;;;;;;;25.58;13.52;;;;;;;10.79;100.00;101631.09;5072581;28;20529;-66
2022/10/13 03:40:02;;;;;;;28.23;13.40;;;;;;;10.77;100.00;101631.06;5072429;28;20033;-65
2022/10/13 03:42:27;;;;;;;27.83;13.30;;;;;;;10.85;100.00;101639.16;5071963;28;20028;-65
2022/10/13 03:44:53;;;;;;;27.05;13.98;;;;;;;10.87;100.00;101639.16;5072644;28;20414;-66
2022/10/13 03:47:18;;;;;;;27.80;13.85;;;;;;;10.87;100.00;101639.16;5072355;28;20028;-66
2022/10/13 03:49:43;;;;;;;27.95;14.18;;;;;;;10.87;100.00;101634.75;5072396;28;20120;-65
2022/10/13 03:52:09;;;;;;;26.90;13.82;;;;;;;10.91;100.00;101638.34;5072361;28;20056;-66
2022/10/13 03:54:34;;;;;;;28.02;14.02;;;;;;;10.89;100.00;101624.19;5072349;28;20082;-65
2022/10/13 03:56:59;;;;;;;26.75;13.60;;;;;;;10.88;100.00;101631.25;5072281;28;20032;-64
2022/10/13 03:59:26;;;;;;;26.27;13.68;;;;;;;10.89;100.00;101619.81;5072432;28;20123;-66
2022/10/13 04:01:51;;;;;;;28.40;14.00;;;;;;;10.88;100.00;101611.81;5072547;28;20488;-66
2022/10/13 04:04:16;;;;;;;28.45;13.38;;;;;;;10.90;100.00;101618.06;5072476;28;20052;-66
2022/10/13 04:06:42;;;;;;;27.63;14.25;;;;;;;10.92;100.00;101613.66;5072219;28;20021;-65
2022/10/13 04:09:08;;;;;;;27.55;13.55;;;;;;;10.93;100.00;101610.16;5072078;28;20021;-65
2022/10/13 04:11:33;;;;;;;27.88;13.50;;;;;;;10.92;100.00;101606.63;5072324;28;20112;-65
2022/10/13 04:13:58;;;;;;;27.15;13.45;;;;;;;10.97;100.00;101606.69;5072204;28;20028;-64
2022/10/13 04:16:28;;;;;;;27.80;13.52;;;;;;;10.98;100.00;101614.66;5072029;28;20064;-65
2022/10/13 04:19:04;;;;;;;28.95;12.90;;;;;;;10.98;100.00;101613.78;5067336;28;20032;-66
2022/10/13 04:21:32;;;;;;;27.30;13.27;;;;;;;10.97;100.00;101612.00;5069350;28;20025;-66
2022/10/13 04:23:59;;;;;;;28.95;13.85;;;;;;;10.94;100.00;101604.00;5072241;28;20028;-66
2022/10/13 04:26:26;;;;;;;28.20;14.25;;;;;;;10.67;100.00;101601.81;5072092;28;20028;-63
2022/10/13 04:28:53;;;;;;;28.63;15.30;;;;;;;10.49;100.00;101591.84;5068265;28;20052;-65
2022/10/13 04:31:20;;;;;;;28.90;15.40;;;;;;;10.35;100.00;101595.13;5072218;28;20095;-65
2022/10/13 04:33:46;;;;;;;30.42;15.10;;;;;;;10.31;100.00;101590.63;5072018;28;20038;-63
2022/10/13 04:36:13;;;;;;;29.30;16.00;;;;;;;10.25;100.00;101588.78;5072032;28;20025;-65
2022/10/13 04:38:39;;;;;;;28.20;14.90;;;;;;;10.23;100.00;101595.75;5071763;28;20027;-66
2022/10/13 04:41:06;;;;;;;31.05;15.77;;;;;;;10.21;100.00;101597.50;5071892;28;20028;-66
2022/10/13 04:43:32;;;;;;;29.33;15.38;;;;;;;10.19;100.00;101599.22;5072067;28;20024;-66
2022/10/13 04:46:06;;;;;;;31.83;15.90;;;;;;;10.20;100.00;101603.66;5071910;28;20060;-66
2022/10/13 04:48:32;;;;;;;27.70;14.95;;;;;;;10.22;100.00;101590.47;5071834;28;20380;-65
2022/10/13 04:51:03;;;;;;;29.60;15.65;;;;;;;10.23;100.00;101585.19;5071880;28;20032;-66
2022/10/13 04:53:30;;;;;;;29.15;15.27;;;;;;;10.26;100.00;101592.28;5072218;28;20028;-66
2022/10/13 04:55:59;;;;;;;29.38;15.27;;;;;;;10.26;100.00;101603.75;5075473;28;20025;-66
2022/10/13 04:58:24;;;;;;;29.90;15.00;;;;;;;10.28;100.00;101604.69;5075252;28;20031;-65
2022/10/13 05:00:49;;;;;;;27.73;15.10;;;;;;;10.36;100.00;101601.31;5075485;28;20472;-66
2022/10/13 05:03:15;;;;;;;30.83;15.18;;;;;;;10.42;100.00;101590.84;5075280;28;20048;-65
2022/10/13 05:05:41;;;;;;;31.15;15.20;;;;;;;10.45;100.00;101591.75;5075249;28;20544;-66
2022/10/13 05:08:06;;;;;;;28.92;14.90;;;;;;;10.48;100.00;101590.94;5075287;28;20048;-66
2022/10/13 05:10:31;;;;;;;30.75;15.15;;;;;;;10.49;100.00;101583.91;5075171;28;20100;-66
2022/10/13 05:12:56;;;;;;;27.75;14.63;;;;;;;10.52;100.00;101587.47;5073627;28;20060;-66
2022/10/13 05:15:22;;;;;;;31.08;14.52;;;;;;;10.57;100.00;101592.84;5075093;28;20120;-66
2022/10/13 05:17:48;;;;;;;28.90;14.90;;;;;;;10.59;100.00;101592.00;5074902;28;20471;-66
2022/10/13 05:20:13;;;;;;;27.95;14.75;;;;;;;10.61;100.00;101584.09;5073370;28;20105;-66
2022/10/13 05:22:38;;;;;;;27.27;14.50;;;;;;;10.61;100.00;101582.34;5074710;28;20032;-66
2022/10/13 05:25:04;;;;;;;28.15;14.73;;;;;;;10.60;100.00;101587.59;5075055;28;20024;-66
2022/10/13 05:27:29;;;;;;;29.08;14.88;;;;;;;10.59;100.00;101589.38;5075059;28;20086;-66
2022/10/13 05:29:54;;;;;;;28.98;14.00;;;;;;;10.62;100.00;101593.81;5075118;28;20103;-66
2022/10/13 05:32:20;;;;;;;30.52;14.95;;;;;;;10.60;100.00;101592.88;5074895;28;20105;-66
2022/10/13 05:34:47;;;;;;;29.38;15.27;;;;;;;10.57;100.00;101600.78;5074802;28;20105;-67
2022/10/13 05:37:12;;;;;;;28.60;15.02;;;;;;;10.56;100.00;101597.25;5074591;28;20031;-66
2022/10/13 05:39:38;;;;;;;28.17;15.10;;;;;;;10.57;100.00;101598.13;5074779;28;20103;-66
2022/10/13 05:42:03;;;;;;;28.40;14.60;;;;;;;10.56;100.00;101589.31;5072819;28;20044;-66
2022/10/13 05:44:29;;;;;;;28.00;14.55;;;;;;;10.55;100.00;101586.66;5074337;28;20024;-66
2022/10/13 05:46:55;;;;;;;28.25;14.73;;;;;;;10.54;100.00;101588.41;5074582;28;20105;-66
2022/10/13 05:49:21;;;;;;;29.75;15.80;;;;;;;10.53;100.00;101586.63;5074428;28;20422;-66
2022/10/13 05:51:49;;;;;;;28.67;14.45;;;;;;;10.52;100.00;101586.59;5074039;28;20029;-65
2022/10/13 05:54:29;;;;;;;27.15;14.65;;;;;;;10.52;100.00;101586.59;5069590;28;20408;-66
2022/10/13 05:57:13;;;;;;;30.08;14.93;;;;;;;10.54;100.00;101593.72;5071346;28;20422;-62
2022/10/13 05:59:44;;;;;;;30.55;15.45;;;;;;;10.53;100.00;101589.28;5073519;28;20391;-62
2022/10/13 06:02:12;;;;;;;29.40;15.27;;;;;;;10.57;100.00;101593.75;5072920;28;20029;-65
2022/10/13 06:04:43;;;;;;;30.48;15.45;;;;;;;10.62;100.00;101594.69;5073190;28;20024;-62
2022/10/13 06:07:08;;;;;;;28.50;15.02;;;;;;;10.66;100.00;101595.66;5071715;28;20032;-64
2022/10/13 06:09:39;;;;;;;28.40;15.35;;;;;;;10.71;100.00;101587.78;5070858;28;20060;-63
2022/10/13 06:12:05;;;;;;;28.33;14.77;;;;;;;10.73;100.00;101584.31;5073203;28;20029;-63
2022/10/13 06:14:31;;;;;;;29.60;14.50;;;;;;;10.73;100.00;101579.03;5072830;28;20056;-63
2022/10/13 06:16:57;;;;;;;28.90;14.60;;;;;;;10.75;100.00;101582.56;5071957;28;20068;-63
2022/10/13 06:19:22;;;;;;;29.17;14.88;;;;;;;10.78;100.00;101577.31;5072554;28;20025;-64
2022/10/13 06:21:47;;;;;;;29.13;15.02;;;;;;;10.81;100.00;101572.06;5073052;28;20045;-63
2022/10/13 06:24:14;;;;;;;28.65;15.00;;;;;;;10.84;100.00;101567.72;5070435;28;20041;-66
2022/10/13 06:26:39;;;;;;;30.17;15.45;;;;;;;10.85;100.00;101556.25;5071574;28;20090;-62
2022/10/13 06:29:05;;;;;;;30.70;14.82;;;;;;;10.87;100.00;101567.75;5071589;28;20024;-64
2022/10/13 06:31:30;;;;;;;29.42;14.90;;;;;;;10.87;100.00;101579.22;5070987;28;20426;-66
2022/10/13 06:33:57;;;;;;;29.73;15.50;;;;;;;10.89;100.00;101572.22;5070662;28;20021;-64
2022/10/13 06:36:22;;;;;;;29.45;15.15;;;;;;;10.92;100.00;101576.63;5071339;28;20051;-66
2022/10/13 06:38:48;;;;;;;28.98;14.82;;;;;;;10.94;100.00;101578.44;5071190;28;20056;-65
2022/10/13 06:41:13;;;;;;;29.80;14.68;;;;;;;10.95;100.00;101574.94;5071045;28;20070;-63
2022/10/13 06:43:39;;;;;;;27.98;13.93;;;;;;;10.98;100.00;101560.88;5071354;28;20035;-63
2022/10/13 06:46:05;;;;;;;27.92;14.55;;;;;;;11.02;100.00;101567.94;5072261;28;20024;-62
2022/10/13 06:48:30;;;;;;;30.67;15.00;;;;;;;11.04;100.00;101568.88;5071805;28;20024;-62
2022/10/13 06:51:01;;;;;;;30.92;15.10;;;;;;;11.07;100.00;101570.69;5071926;28;20458;-65
2022/10/13 06:53:26;;;;;;;31.65;15.13;;;;;;;11.08;100.00;101573.34;5072186;28;20506;-63
2022/10/13 06:55:55;;;;;;;29.27;14.77;;;;;;;11.12;100.00;101580.44;5072115;28;20017;-63
2022/10/13 06:58:20;;;;;;;29.63;15.00;;;;;;;11.14;100.00;101570.78;5071930;28;20379;-64
2022/10/13 07:00:46;;;;;;;27.83;14.38;;;;;;;11.17;100.00;101556.72;5072017;28;20023;-63
2022/10/13 07:03:11;;;;;;;30.20;15.02;;;;;;;11.22;100.00;101577.94;5072289;28;20356;-63
2022/10/13 07:05:36;;;;;;;29.65;15.30;;;;;;;11.20;100.00;101566.44;5070760;28;20475;-65
2022/10/13 07:08:02;;;;;;;28.63;14.93;;;;;;;11.19;100.00;101562.91;5071447;28;20105;-64
2022/10/13 07:10:27;;;;;;;29.10;15.52;;;;;;;11.19;100.00;101560.25;5072256;28;20016;-63
2022/10/13 07:12:52;;;;;;;27.35;14.77;;;;;;;11.21;100.00;101562.91;5072071;28;20028;-63
2022/10/13 07:15:18;;;;;;;29.75;14.95;;;;;;;11.22;100.00;101564.72;5071953;28;20051;-64
2022/10/13 07:17:43;;;;;;;27.85;14.88;;;;;;;11.23;100.00;101572.66;5069645;28;20080;-63
2022/10/13 07:20:09;;;;;;;32.10;14.98;;;;;;;11.25;100.00;101572.69;5071584;28;20048;-63
2022/10/13 07:22:34;;;;;;;29.67;15.48;;;;;;;11.30;100.00;101578.91;5071829;28;20031;-62
2022/10/13 07:24:59;;;;;;;28.92;15.00;;;;;;;11.34;100.00;101580.72;5069875;28;20150;-63
2022/10/13 07:27:26;;;;;;;29.20;16.13;;;;;;;11.36;100.00;101573.72;5071060;28;20048;-64
2022/10/13 07:29:51;;;;;;;31.00;16.23;;;;;;;11.42;100.00;101573.78;5071888;28;20120;-62
2022/10/13 07:32:17;;;;;;;31.55;16.65;;;;;;;11.46;100.00;101572.97;5071503;28;20119;-63
2022/10/13 07:34:42;;;;;;;29.52;15.95;;;;;;;11.51;100.00;101573.88;5069920;28;20050;-63
2022/10/13 07:37:08;;;;;;;30.92;16.35;;;;;;;11.54;100.00;101582.75;5068481;28;20028;-63
2022/10/13 07:39:33;;;;;;;29.95;15.52;;;;;;;11.52;100.00;101580.97;5070480;28;20021;-63
2022/10/13 07:41:58;;;;;;;29.95;16.13;;;;;;;11.53;100.00;101576.56;5067792;28;20418;-64
2022/10/13 07:44:24;;;;;;;29.70;16.35;;;;;;;11.54;100.00;101569.53;5067649;28;20033;-62
2022/10/13 07:46:49;;;;;;;30.80;16.10;;;;;;;11.57;100.00;101569.56;5071407;28;20037;-63
2022/10/13 07:49:14;;;;;;;31.65;16.55;;;;;;;11.64;100.00;101580.22;5071218;28;20028;-62
2022/10/13 07:51:40;;;;;;;32.03;16.10;;;;;;;11.77;100.00;101573.31;5071244;28;20022;-62
2022/10/13 07:54:05;;;;;;;33.03;16.60;;;;;;;11.85;100.00;101568.09;5071552;28;20465;-62
2022/10/13 07:56:30;;;;;;;29.92;16.52;;;;;;;11.97;100.00;101573.56;5071578;28;20028;-63
2022/10/13 07:58:56;;;;;;;31.05;17.27;;;;;;;12.12;100.00;101575.47;5071639;28;20121;-65
2022/10/13 08:01:21;;;;;;;31.63;17.13;;;;;;;12.20;100.00;101579.09;5071052;28;20170;-64
2022/10/13 08:03:47;;;;;;;29.92;15.90;;;;;;;12.23;100.00;101575.56;5071555;28;20051;-62
2022/10/13 08:06:13;;;;;;;31.23;17.15;;;;;;;12.28;100.00;101580.91;5071960;28;20024;-65
2022/10/13 08:08:39;;;;;;;29.35;16.55;;;;;;;12.31;100.00;101573.00;5068752;28;20025;-65
2022/10/13 08:11:08;;;;;;;31.52;16.52;;;;;;;12.32;100.00;101580.03;5071778;28;20024;-63
2022/10/13 08:13:33;;;;;;;30.00;16.10;;;;;;;12.37;100.00;101583.66;5068588;28;20025;-63
2022/10/13 08:16:00;;;;;;;30.88;16.70;;;;;;;12.41;100.00;101580.16;5072179;28;20051;-63
2022/10/13 08:18:26;;;;;;;29.42;15.85;;;;;;;12.40;100.00;101569.53;5072043;28;20486;-63
2022/10/13 08:20:51;;;;;;;29.27;15.90;;;;;;;12.40;100.00;101570.41;5072085;28;20025;-63
2022/10/13 08:23:16;;;;;;;30.48;15.63;;;;;;;12.36;100.00;101569.50;5072010;28;20493;-62
2022/10/13 08:25:42;;;;;;;29.65;15.30;;;;;;;12.36;100.00;101565.94;5067798;28;20040;-62
2022/10/13 08:28:29;;;;;;;28.38;15.60;;;;;;;12.40;100.00;101573.06;5068661;28;20021;-62
2022/10/13 08:30:56;;;;;;;27.58;14.70;;;;;;;12.44;100.00;101564.25;5073025;28;20376;-62
2022/10/13 08:33:23;;;;;;;28.67;15.20;;;;;;;12.52;100.00;101561.66;5074501;28;20380;-62
2022/10/13 08:35:51;;;;;;;27.38;14.95;;;;;;;12.59;100.00;101555.53;5072564;28;20059;-62
2022/10/13 08:38:16;;;;;;;29.42;15.43;;;;;;;12.69;100.00;101551.19;5073864;28;20032;-62
2022/10/13 08:40:47;;;;;;;29.52;15.30;;;;;;;12.72;100.00;101569.78;5054911;28;20040;-66
2022/10/13 08:43:16;;;;;;;28.88;14.70;;;;;;;12.75;100.00;101561.81;5071919;28;20024;-63
2022/10/13 08:45:41;;;;;;;28.52;14.50;;;;;;;12.73;100.00;101559.16;5072239;28;20023;-64
2022/10/13 08:48:13;;;;;;;30.08;14.85;;;;;;;12.73;100.00;101564.47;5073457;28;20471;-64
2022/10/13 08:50:40;;;;;;;27.70;14.50;;;;;;;12.72;100.00;101564.47;5073520;28;20020;-62
2022/10/13 08:53:12;;;;;;;29.13;14.05;;;;;;;12.75;100.00;101555.66;5073543;28;20119;-61
2022/10/13 08:55:44;;;;;;;27.70;14.07;;;;;;;12.89;100.00;101561.94;5072802;28;20035;-64
2022/10/13 08:58:23;;;;;;;27.73;14.23;;;;;;;12.94;100.00;101559.31;5073032;28;20125;-63
2022/10/13 09:01:05;;;;;;;28.10;14.52;;;;;;;12.99;100.00;101552.25;5071342;28;20286;-63
2022/10/13 09:03:31;;;;;;;29.00;14.07;;;;;;;12.95;100.00;101551.34;5072984;28;20023;-63
2022/10/13 09:06:02;;;;;;;29.33;14.32;;;;;;;12.89;100.00;101546.88;5072639;28;20100;-63
2022/10/13 09:08:36;;;;;;;27.27;14.13;;;;;;;12.85;100.00;101550.41;5072823;28;20056;-63
2022/10/13 09:11:02;;;;;;;27.80;14.30;;;;;;;12.82;100.00;101545.06;5072683;28;20428;-65
2022/10/13 09:13:27;;;;;;;28.17;15.25;;;;;;;12.82;100.00;101539.78;5073152;28;20104;-64
2022/10/13 09:15:52;;;;;;;27.88;14.30;;;;;;;12.81;100.00;101540.63;5072301;28;20434;-65
2022/10/13 09:18:27;;;;;;;27.23;14.35;;;;;;;12.75;100.00;101550.34;5073048;28;20596;-65
2022/10/13 09:21:08;;;;;;;28.92;14.50;;;;;;;12.71;100.00;101542.38;5072474;28;20043;-63
2022/10/13 09:23:33;;;;;;;29.92;14.60;;;;;;;12.69;100.00;101548.53;5072493;28;20012;-63
2022/10/13 09:26:07;;;;;;;28.33;14.38;;;;;;;12.67;100.00;101545.88;5072776;28;20035;-64
2022/10/13 09:28:33;;;;;;;27.00;13.23;;;;;;;12.71;100.00;101546.75;5072749;28;20055;-65
2022/10/13 09:31:05;;;;;;;27.58;14.02;;;;;;;12.74;100.00;101536.16;5073859;28;20056;-62
2022/10/13 09:33:35;;;;;;;;;;;;;;;12.79;100.00;101542.41;5071438;28;20353;-64
2022/10/13 09:36:01;;;;;;;28.83;15.05;;;;;;;12.90;100.00;101535.41;5073298;28;19951;-63
2022/10/13 09:38:27;;;;;;;27.67;14.70;;;;;;;13.05;100.00;101536.38;5073574;28;20107;-64
2022/10/13 09:40:59;;;;;;;28.23;14.80;;;;;;;13.17;100.00;101532.88;5072917;28;20356;-64
2022/10/13 09:43:40;;;;;;;29.60;15.82;;;;;;;13.12;100.00;101532.88;5074582;28;20366;-64
2022/10/13 09:46:21;;;;;;;27.90;15.38;;;;;;;13.03;100.00;101535.47;5073331;28;20020;-64
2022/10/13 09:48:50;;;;;;;28.75;15.52;;;;;;;12.98;100.00;101539.88;5072875;28;20055;-65
2022/10/13 09:51:44;;;;;;;31.20;15.88;;;;;;;12.94;100.00;101535.41;5071967;28;20116;-63
2022/10/13 09:54:44;;;;;;;31.85;17.83;;;;;;;12.55;100.00;101536.06;5070562;28;20051;-65
2022/10/13 09:57:15;;;;;;;30.83;17.58;;;;;;;11.97;100.00;101528.50;5071367;28;20487;-64
2022/10/13 09:59:51;;;;;;;31.40;18.23;;;;;;;11.66;100.00;101537.88;5074207;28;20494;-64
2022/10/13 10:02:31;;;;;;;33.83;19.58;;;;;;;11.52;100.00;101528.00;5073250;28;20020;-65
2022/10/13 10:05:04;;;;;;;33.92;20.00;;;;;;;11.44;100.00;101527.03;5074388;28;20036;-65
2022/10/13 10:07:31;;;;;;;36.17;20.38;;;;;;;11.43;100.00;101535.88;5073337;28;20024;-64
2022/10/13 10:10:05;;;;;;;35.97;20.35;;;;;;;11.41;100.00;101523.47;5073756;28;20048;-64
2022/10/13 10:12:36;;;;;;;36.15;20.80;;;;;;;11.40;100.00;101524.34;5073229;28;20467;-64
2022/10/13 10:15:01;;;;;;;34.85;21.35;;;;;;;11.34;100.00;101527.78;5070667;28;20021;-64
2022/10/13 10:17:45;;;;;;;36.95;21.73;;;;;;;11.29;100.00;101525.09;5073275;28;20083;-64
2022/10/13 10:20:10;;;;;;;37.60;22.05;;;;;;;11.29;100.00;101522.44;5072257;28;20524;-64
2022/10/13 10:22:51;;;;;;;35.97;21.33;;;;;;;11.23;100.00;101518.84;5072827;28;20029;-63
2022/10/13 10:25:36;;;;;;;36.22;21.08;;;;;;;11.18;100.00;101520.53;5072257;28;20034;-64
2022/10/13 10:28:13;;;;;;;35.55;21.63;;;;;;;11.22;100.00;101522.38;5070988;28;20024;-65
2022/10/13 10:30:54;;;;;;;35.70;21.63;;;;;;;11.21;100.00;101523.22;5073829;28;20107;-65
2022/10/13 10:33:29;;;;;;;38.63;23.48;;;;;;;11.28;100.00;101517.13;5073404;28;20033;-65
2022/10/13 10:36:06;;;;;;;38.95;22.67;;;;;;;11.28;100.00;101520.66;5070124;28;20052;-64
2022/10/13 10:38:47;;;;;;;37.65;22.95;;;;;;;11.39;100.00;101515.50;5070527;28;20047;-64
2022/10/13 10:41:30;;;;;;;36.95;21.65;;;;;;;11.34;100.00;101523.41;5073650;28;20032;-64
2022/10/13 10:44:03;;;;;;;34.53;21.30;;;;;;;11.43;100.00;101522.63;5070229;28;20070;-64
2022/10/13 10:46:44;;;;;;;36.08;22.35;;;;;;;11.58;100.00;101511.31;5070388;28;20039;-63
2022/10/13 10:49:26;;;;;;;36.78;22.80;;;;;;;11.69;100.00;101509.66;5073686;28;20074;-64
2022/10/13 10:51:52;;;;;;;35.15;22.05;;;;;;;11.72;100.00;101518.50;5068770;28;20464;-64
2022/10/13 10:54:45;;;;;;;37.15;21.80;;;;;;;11.71;100.00;101517.63;5073104;28;20111;-64
2022/10/13 10:57:20;;;;;;;35.47;21.67;;;;;;;11.79;100.00;101515.94;5071591;28;20111;-64
2022/10/13 11:00:04;;;;;;;34.45;21.40;;;;;;;11.84;100.00;101511.56;5071395;28;20020;-64
2022/10/13 11:02:44;;;;;;;34.90;21.55;;;;;;;11.85;100.00;101508.06;5068545;28;20020;-63
2022/10/13 11:05:10;;;;;;;34.75;21.38;;;;;;;11.93;100.00;101499.31;5069211;28;20028;-64
2022/10/13 11:07:38;;;;;;;33.88;21.65;;;;;;;11.97;100.00;101501.09;5072310;28;20028;-64
2022/10/13 11:10:12;;;;;;;37.40;21.98;;;;;;;12.11;100.00;101495.94;5071467;28;20043;-64
2022/10/13 11:12:47;;;;;;;36.63;21.88;;;;;;;12.20;100.00;101493.34;5071322;28;20036;-65